LFLB/CMF METAR and TAF weather

Enter ICAO airport designator
Station Type Date Time Source
LFLB METAR 2019/10/23 02:00 UTC NOAA

LFLB 230200Z AUTO 35012KT CAVOK 15/11 Q1016


Station Type Date Time Source
LFLB Decoded METAR 2019/10/23 02:00 UTC NOAA

Chambery / Aix-Les-Bains, France (LFLB) 45-39N 005-53E 239M
Oct 22, 2019 - 10:00 PM EDT / 2019.10.23 0200 UTC
Wind: from the N (350 degrees) at 14 MPH (12 KT):0
Visibility: greater than 7 mile(s):0
Temperature: 59 F (15 C)
Dew Point: 51 F (11 C)
Relative Humidity: 76%
Pressure (altimeter): 30.00 in. Hg (1016 hPa)
ob: LFLB 230200Z AUTO 35012KT CAVOK 15/11 Q1016
cycle: 2

Station Type Date Time Source
LFLB TAF 2019/10/22 17:58 UTC NOAA

TAF LFLB 221755Z 2217/2312 CNL

Example: see airport list